Archival Weather

Bob Hope

Burbank, California (KBUR)

Report from: Monday, January 29, 2024 4:53 PM PST
Current time: Friday, June 14, 2024 4:16 AM PDT

Current weather – Weather history – Daily summaries
Weather forecast

Temperature23.3°C (73.9°F)
Dew point0.6°C (33.1°F)
Winds 7 kts (3.6 m/s, 8.1 mph) West-Southwest (250°)
Visibility10 mi. (16.1 km)
Clouds Sky clear
Altimeter30.05 in.Hg (1018 mB)
Relative humidity22 %
Density altitude953 ft. (290 m)
Sea-level pressure101.7 kPa (1017 mB, 30.02 in.Hg)
Remarks Automated weather observing station with precipitation discriminator
Flight conditions Visual Meteorological Conditions
Raw dataKBUR 300053Z 25007KT 10SM CLR 23/01 A3005 RMK AO2 SLP166 T02330006
An error has occurred. This application may no longer respond until reloaded. Reload 🗙